Time;durP1;ratioP1;P1;durP2;ratioP2;P2;SDS_P1;SDS_P2;PMS_P1;PMS_P2;Temp;Humidity;BMP_temperature;BMP_pressure;BME280_temperature;BME280_humidity;BME280_pressure;Samples;Min_cycle;Max_cycle;Signal;HPM_P1;HPM_P2
2022/01/13 00:00:28;;;;;;;311.50;58.60;;;;;;;1.21;100.00;103556.69;6259023;22;20016;-85
2022/01/13 00:02:53;;;;;;;339.17;69.22;;;;;;;1.24;100.00;103553.13;6224157;22;20058;-85
2022/01/13 00:05:26;;;;;;;409.70;81.60;;;;;;;1.23;100.00;103546.94;6233616;22;20071;-86
2022/01/13 00:07:55;;;;;;;370.77;72.50;;;;;;;1.23;100.00;103543.41;6235039;23;20070;-85
2022/01/13 00:10:21;;;;;;;377.10;82.50;;;;;;;1.25;100.00;103541.63;6257754;22;20027;-86
2022/01/13 00:12:47;;;;;;;417.70;78.10;;;;;;;1.27;100.00;103542.47;6232866;23;20457;-85
2022/01/13 00:17:57;;;;;;;327.60;57.22;;;;;;;1.22;100.00;103549.63;6240259;22;20027;-85
2022/01/13 00:20:34;;;;;;;369.38;66.18;;;;;;;1.22;100.00;103537.25;6257000;22;20031;-85
2022/01/13 00:25:44;;;;;;;399.60;74.00;;;;;;;1.25;100.00;103531.03;6236301;22;20027;-85
2022/01/13 00:28:19;;;;;;;383.40;66.80;;;;;;;1.23;100.00;103523.13;6234551;22;20016;-86
2022/01/13 00:30:49;;;;;;;406.00;72.85;;;;;;;1.26;100.00;103523.03;6211875;23;20016;-85
2022/01/13 00:33:17;;;;;;;407.88;75.57;;;;;;;1.25;100.00;103528.38;6209260;22;20027;-85
2022/01/13 00:35:43;;;;;;;343.77;57.55;;;;;;;1.25;100.00;103531.03;6234536;23;20496;-85
2022/01/13 00:38:08;;;;;;;376.85;63.60;;;;;;;1.26;100.00;103530.13;6259199;22;20020;-86
2022/01/13 00:40:34;;;;;;;463.00;87.93;;;;;;;1.28;100.00;103534.47;6234693;23;20027;-85
2022/01/13 00:42:59;;;;;;;489.70;83.60;;;;;;;1.27;100.00;103532.75;6235036;23;20019;-86
2022/01/13 00:45:25;;;;;;;369.70;63.05;;;;;;;1.28;100.00;103533.59;6205873;22;20012;-85
2022/01/13 00:47:50;;;;;;;475.00;85.43;;;;;;;1.30;100.00;103543.25;6234024;23;20103;-85
2022/01/13 00:50:18;;;;;;;440.52;81.38;;;;;;;1.30;100.00;103543.25;6259069;22;20020;-85
2022/01/13 00:52:43;;;;;;;419.77;74.53;;;;;;;1.29;100.00;103540.63;6235033;23;20028;-85
2022/01/13 00:55:14;;;;;;;371.73;65.95;;;;;;;1.31;100.00;103530.88;6231909;22;20062;-85
2022/01/13 00:57:40;;;;;;;405.90;72.35;;;;;;;1.30;100.00;103534.44;6236784;22;20022;-86
2022/01/13 01:00:06;;;;;;;501.33;85.50;;;;;;;1.34;100.00;103528.16;6233304;22;20401;-85
2022/01/13 01:02:32;;;;;;;511.10;91.13;;;;;;;1.34;100.00;103533.44;6233990;23;20028;-85
2022/01/13 01:04:57;;;;;;;501.95;81.95;;;;;;;1.36;100.00;103542.22;6235688;23;20107;-86
2022/01/13 01:07:22;;;;;;;414.58;64.78;;;;;;;1.33;100.00;103540.53;6231346;22;20094;-85
2022/01/13 01:09:50;;;;;;;282.58;50.17;;;;;;;1.30;100.00;103537.97;6233838;23;20016;-86
2022/01/13 01:12:17;;;;;;;369.13;62.20;;;;;;;1.31;100.00;103539.69;6231262;22;20016;-85
2022/01/13 01:14:53;;;;;;;438.90;66.85;;;;;;;1.33;100.00;103547.59;6232428;23;20028;-85
2022/01/13 01:17:18;;;;;;;460.80;72.53;;;;;;;1.31;100.00;103550.28;6233586;22;20107;-86
2022/01/13 01:19:48;;;;;;;439.70;72.18;;;;;;;1.32;100.00;103540.53;6232402;23;20420;-85
2022/01/13 01:27:31;;;;;;;581.72;97.22;;;;;;;1.33;100.00;103550.25;6202077;22;21789;-85
2022/01/13 01:30:03;;;;;;;415.65;66.10;;;;;;;1.29;100.00;103552.06;6232752;23;20008;-86
2022/01/13 01:32:30;;;;;;;436.02;70.47;;;;;;;1.33;100.00;103543.16;6230982;22;20022;-86
2022/01/13 01:34:56;;;;;;;445.60;69.53;;;;;;;1.33;100.00;103535.22;6234929;22;20020;-85
2022/01/13 01:37:26;;;;;;;430.05;79.57;;;;;;;1.36;100.00;103536.94;6182777;22;20078;-85
2022/01/13 01:39:53;;;;;;;467.23;78.00;;;;;;;1.35;100.00;103536.06;6210187;23;20043;-86
2022/01/13 01:42:20;;;;;;;493.65;90.03;;;;;;;1.37;100.00;103536.03;6205682;22;20383;-85
2022/01/13 01:44:48;;;;;;;488.58;81.63;;;;;;;1.35;100.00;103528.13;6207918;23;20016;-85
2022/01/13 01:47:16;;;;;;;424.80;70.78;;;;;;;1.38;100.00;103529.81;6228730;22;20103;-85
2022/01/13 01:49:48;;;;;;;486.30;80.57;;;;;;;1.36;100.00;103521.06;6234723;23;20016;-86
2022/01/13 01:52:16;;;;;;;509.88;95.28;;;;;;;1.39;100.00;103521.00;6209025;22;20024;-86
2022/01/13 01:54:42;;;;;;;518.38;96.80;;;;;;;1.37;100.00;103520.16;6233640;23;20054;-85
2022/01/13 01:57:08;;;;;;;549.05;102.43;;;;;;;1.38;100.00;103524.53;6207265;22;20085;-86
2022/01/13 01:59:39;;;;;;;498.30;86.28;;;;;;;1.35;100.00;103521.94;6232534;23;20095;-87
2022/01/13 02:02:06;;;;;;;421.67;74.93;;;;;;;1.34;100.00;103517.56;6232698;22;20017;-85
2022/01/13 02:04:32;;;;;;;528.65;88.90;;;;;;;1.35;100.00;103528.13;6209822;23;20027;-85
2022/01/13 02:07:02;;;;;;;506.00;87.65;;;;;;;1.37;100.00;103524.56;6233562;23;20016;-85
2022/01/13 02:09:28;;;;;;;542.65;97.93;;;;;;;1.36;100.00;103523.72;6233269;22;20016;-85
2022/01/13 02:11:58;;;;;;;454.20;85.70;;;;;;;1.33;100.00;103521.13;6233462;23;20023;-85
2022/01/13 02:16:56;;;;;;;461.73;76.97;;;;;;;1.34;100.00;103520.22;6239075;22;20027;-85
2022/01/13 02:19:24;;;;;;;461.58;73.32;;;;;;;1.32;100.00;103514.09;6259140;22;20020;-85
2022/01/13 02:21:50;;;;;;;415.25;65.45;;;;;;;1.29;100.00;103516.81;6258437;22;20077;-86
2022/01/13 02:24:15;;;;;;;553.28;98.60;;;;;;;1.31;100.00;103522.94;6233046;22;20609;-87
2022/01/13 02:26:41;;;;;;;377.25;63.50;;;;;;;1.30;100.00;103521.22;6234677;23;20016;-85
2022/01/13 02:29:06;;;;;;;484.08;88.95;;;;;;;1.27;100.00;103519.50;6234678;22;20091;-86
2022/01/13 02:31:32;;;;;;;481.35;87.47;;;;;;;1.31;100.00;103522.94;6208534;23;20020;-85
2022/01/13 02:33:57;;;;;;;501.58;83.53;;;;;;;1.31;100.00;103533.53;6208344;23;20234;-85
2022/01/13 02:36:24;;;;;;;536.35;96.05;;;;;;;1.31;100.00;103533.53;6233535;22;20024;-85
2022/01/13 02:38:52;;;;;;;466.58;70.90;;;;;;;1.24;100.00;103537.25;6236180;22;20097;-85
2022/01/13 02:41:17;;;;;;;427.08;63.83;;;;;;;1.23;100.00;103540.78;6257457;22;20051;-85
2022/01/13 02:43:44;;;;;;;485.02;77.70;;;;;;;1.25;100.00;103531.03;6235570;22;20023;-86
2022/01/13 02:49:06;;;;;;;551.67;91.25;;;;;;;1.25;100.00;103537.19;6236270;22;20012;-85
2022/01/13 02:51:31;;;;;;;;;;;;;;;1.23;100.00;103532.84;6233564;23;20017;-85
2022/01/13 02:53:57;;;;;;;415.92;68.22;;;;;;;1.13;100.00;103533.06;6259638;22;19923;-87
2022/01/13 02:56:22;;;;;;;505.50;77.38;;;;;;;1.16;100.00;103540.06;6233721;22;20236;-85
2022/01/13 02:58:48;;;;;;;530.30;90.57;;;;;;;1.18;100.00;103532.06;6234954;23;20099;-85
2022/01/13 03:01:14;;;;;;;495.17;86.75;;;;;;;1.17;100.00;103531.22;6233068;22;20016;-86
2022/01/13 03:03:40;;;;;;;459.55;79.35;;;;;;;1.15;100.00;103530.38;6235346;23;20016;-85
2022/01/13 03:06:12;;;;;;;399.63;66.38;;;;;;;1.12;100.00;103533.09;6209371;23;20020;-85
2022/01/13 03:08:41;;;;;;;507.50;88.88;;;;;;;1.11;100.00;103536.66;6232647;22;20050;-86
2022/01/13 03:11:07;;;;;;;509.63;86.00;;;;;;;1.10;100.00;103517.28;6233415;23;20088;-85
2022/01/13 03:13:33;;;;;;;577.25;89.88;;;;;;;1.12;100.00;103523.41;6232103;22;20099;-86
2022/01/13 03:15:58;;;;;;;558.30;89.50;;;;;;;1.05;100.00;103511.22;6235730;23;20077;-85
2022/01/13 03:18:24;;;;;;;526.88;82.30;;;;;;;1.08;100.00;103507.63;6183964;22;20118;-86
2022/01/13 03:20:49;;;;;;;608.67;103.85;;;;;;;1.07;100.00;103508.53;6236646;23;20023;-85
2022/01/13 03:23:17;;;;;;;474.10;70.15;;;;;;;1.01;100.00;103509.56;6212526;22;20016;-86
2022/01/13 03:25:45;;;;;;;447.48;81.55;;;;;;;1.03;100.00;103507.72;6210257;23;20059;-85
2022/01/13 03:28:16;;;;;;;565.88;84.80;;;;;;;1.02;100.00;103508.66;6231233;22;20016;-85
2022/01/13 03:30:42;;;;;;;491.40;83.43;;;;;;;1.05;100.00;103510.34;6235400;23;20024;-86
2022/01/13 03:33:08;;;;;;;539.13;93.63;;;;;;;1.06;100.00;103512.06;6209438;22;20479;-86
2022/01/13 03:35:36;;;;;;;346.83;50.03;;;;;;;0.97;100.00;103523.75;6235799;23;20009;-85
2022/01/13 03:38:02;;;;;;;443.75;70.78;;;;;;;1.00;100.00;103513.09;6237653;22;20016;-85
2022/01/13 03:40:27;;;;;;;468.92;82.00;;;;;;;1.04;100.00;103513.91;6259922;22;20075;-86
2022/01/13 03:42:53;;;;;;;502.10;87.95;;;;;;;1.03;100.00;103507.72;6211415;23;20375;-85
2022/01/13 03:45:21;;;;;;;424.45;71.35;;;;;;;1.02;100.00;103515.72;6234034;22;20457;-85
2022/01/13 03:47:48;;;;;;;339.42;57.15;;;;;;;1.00;100.00;103497.22;6235025;23;20036;-85
2022/01/13 03:50:14;;;;;;;396.17;71.53;;;;;;;1.04;100.00;103512.13;6259195;22;20043;-85
2022/01/13 03:53:20;;;;;;;544.20;96.35;;;;;;;1.02;100.00;103506.00;6235131;22;20028;-85
2022/01/13 03:56:24;;;;;;;462.33;77.38;;;;;;;1.01;100.00;103504.28;6162954;22;20020;-85
2022/01/13 03:59:12;;;;;;;465.60;76.47;;;;;;;1.00;100.00;103499.00;6211878;23;20027;-85
2022/01/13 04:01:59;;;;;;;420.23;76.10;;;;;;;1.00;100.00;103497.22;6209983;23;20046;-85
2022/01/13 04:04:26;;;;;;;382.27;62.08;;;;;;;1.03;100.00;103491.00;6235646;22;20050;-85
2022/01/13 04:07:07;;;;;;;482.35;79.95;;;;;;;1.02;100.00;103490.13;6236429;22;20020;-85
2022/01/13 04:09:32;;;;;;;535.38;84.88;;;;;;;1.05;100.00;103490.06;6235026;23;20012;-85
2022/01/13 04:12:03;;;;;;;548.60;84.03;;;;;;;1.06;100.00;103491.78;6235255;23;20125;-85
2022/01/13 04:14:37;;;;;;;513.10;78.95;;;;;;;1.06;100.00;103504.16;6209876;22;20027;-86
2022/01/13 04:17:03;;;;;;;495.35;88.28;;;;;;;1.08;100.00;103486.47;6237559;22;20087;-85
2022/01/13 04:19:29;;;;;;;491.48;73.85;;;;;;;1.04;100.00;103490.97;6234819;22;20444;-85
2022/01/13 04:21:54;;;;;;;396.25;67.38;;;;;;;1.05;100.00;103490.06;6233882;23;20020;-85
2022/01/13 04:24:20;;;;;;;563.53;94.82;;;;;;;1.05;100.00;103491.84;6234573;22;20040;-85
2022/01/13 04:26:45;;;;;;;538.95;96.47;;;;;;;1.08;100.00;103497.91;6259017;22;20012;-86
2022/01/13 04:31:42;;;;;;;408.20;63.30;;;;;;;1.09;100.00;103496.13;6239853;22;20028;-85
2022/01/13 04:34:09;;;;;;;438.30;69.00;;;;;;;1.07;100.00;103487.38;6230525;23;20333;-85
2022/01/13 04:36:34;;;;;;;532.17;93.15;;;;;;;1.09;100.00;103497.03;6230239;22;20110;-86
2022/01/13 04:39:00;;;;;;;424.73;72.78;;;;;;;1.09;100.00;103475.88;6231807;23;20019;-85
2022/01/13 04:41:33;;;;;;;595.65;102.15;;;;;;;1.10;100.00;103484.66;6229630;22;20069;-85
2022/01/13 04:43:59;;;;;;;482.73;83.13;;;;;;;1.09;100.00;103477.63;6235969;22;20020;-85
2022/01/13 04:46:24;;;;;;;567.13;96.28;;;;;;;1.09;100.00;103477.63;6231832;22;20103;-86
2022/01/13 04:48:50;;;;;;;589.90;100.57;;;;;;;1.10;100.00;103484.66;6259915;22;20016;-85
2022/01/13 04:51:15;;;;;;;540.90;91.45;;;;;;;1.11;100.00;103487.25;6233332;22;20085;-86
2022/01/13 04:53:41;;;;;;;518.28;91.18;;;;;;;1.12;100.00;103485.47;6236323;22;20039;-86
2022/01/13 04:56:12;;;;;;;461.30;73.95;;;;;;;1.11;100.00;103489.91;6234994;22;20020;-85
2022/01/13 04:58:38;;;;;;;513.97;86.65;;;;;;;1.12;100.00;103491.66;6234817;23;20015;-85
2022/01/13 05:01:04;;;;;;;644.40;111.10;;;;;;;1.15;100.00;103485.41;6235605;23;20416;-85
2022/01/13 05:03:30;;;;;;;481.83;83.70;;;;;;;1.11;100.00;103483.75;6208689;22;20054;-85
2022/01/13 05:05:55;;;;;;;511.05;82.20;;;;;;;1.10;100.00;103480.25;6236822;22;20016;-85
2022/01/13 05:08:20;;;;;;;438.48;71.18;;;;;;;1.06;100.00;103470.63;6234593;22;20526;-85
2022/01/13 05:10:46;;;;;;;473.95;74.70;;;;;;;1.13;100.00;103477.53;6237508;22;20023;-85
2022/01/13 05:13:12;;;;;;;579.25;100.25;;;;;;;1.15;100.00;103480.09;6236411;22;20489;-86
2022/01/13 05:15:40;;;;;;;503.38;97.00;;;;;;;1.12;100.00;103483.72;6238416;23;20356;-86
2022/01/13 05:18:40;;;;;;;415.38;66.97;;;;;;;1.09;100.00;103486.44;6238339;23;20066;-85
2022/01/13 05:21:08;;;;;;;467.35;84.93;;;;;;;1.09;100.00;103489.09;6237476;22;20416;-85
2022/01/13 05:23:33;;;;;;;411.02;71.93;;;;;;;1.09;100.00;103480.25;6235364;22;20031;-86
2022/01/13 05:25:59;;;;;;;363.42;63.85;;;;;;;1.07;100.00;103482.97;6210720;23;20020;-86
2022/01/13 05:28:24;;;;;;;507.33;84.53;;;;;;;1.09;100.00;103472.31;6237143;22;20046;-85
2022/01/13 05:30:50;;;;;;;539.80;98.43;;;;;;;1.13;100.00;103481.94;6235487;23;20028;-85
2022/01/13 05:33:16;;;;;;;508.45;88.65;;;;;;;1.17;100.00;103474.81;6236533;22;20020;-85
2022/01/13 05:35:41;;;;;;;280.25;43.08;;;;;;;1.04;100.00;103461.03;6230752;22;20061;-86
2022/01/13 05:38:08;;;;;;;372.75;63.80;;;;;;;1.09;100.00;103473.22;6237543;23;20453;-84
2022/01/13 05:40:35;;;;;;;392.80;70.40;;;;;;;1.11;100.00;103473.16;6262990;22;20095;-85
2022/01/13 05:43:02;;;;;;;444.30;81.55;;;;;;;1.10;100.00;103472.31;6238395;23;20440;-85
2022/01/13 05:45:33;;;;;;;448.83;73.63;;;;;;;1.10;100.00;103476.72;6257935;22;20024;-85
2022/01/13 05:48:00;;;;;;;373.20;60.20;;;;;;;1.07;100.00;103467.09;6235673;23;20639;-85
2022/01/13 05:50:28;;;;;;;421.35;77.63;;;;;;;1.13;100.00;103469.59;6232753;22;20027;-84
2022/01/13 05:52:54;;;;;;;468.27;78.50;;;;;;;1.13;100.00;103460.78;6238137;23;20389;-86
2022/01/13 05:55:20;;;;;;;419.13;67.57;;;;;;;1.13;100.00;103460.78;6237869;22;20024;-85
2022/01/13 05:57:46;;;;;;;519.38;93.20;;;;;;;1.17;100.00;103467.72;6263026;22;20039;-85
2022/01/13 06:00:14;;;;;;;465.25;78.13;;;;;;;1.16;100.00;103465.13;6211587;23;20016;-85
2022/01/13 06:02:40;;;;;;;420.83;71.03;;;;;;;1.16;100.00;103457.19;6212541;23;20008;-85
2022/01/13 06:05:07;;;;;;;427.65;77.35;;;;;;;1.13;100.00;103455.50;6260418;22;20054;-86
2022/01/13 06:07:32;;;;;;;251.73;44.67;;;;;;;1.04;100.00;103461.88;6234508;22;20020;-84
2022/01/13 06:09:58;;;;;;;391.75;65.35;;;;;;;1.09;100.00;103454.72;6232984;23;20012;-85
2022/01/13 06:12:32;;;;;;;266.55;51.50;;;;;;;1.05;100.00;103446.88;6238091;22;20016;-85
2022/01/13 06:15:07;;;;;;;431.30;79.85;;;;;;;1.08;100.00;103467.97;6236748;22;20039;-84
2022/01/13 06:17:32;;;;;;;451.88;81.60;;;;;;;1.10;100.00;103474.94;6258284;22;20016;-85
2022/01/13 06:19:59;;;;;;;493.48;85.88;;;;;;;1.12;100.00;103474.91;6204048;23;20507;-85
2022/01/13 06:22:25;;;;;;;352.05;62.63;;;;;;;1.09;100.00;103464.41;6184653;22;20067;-85
2022/01/13 06:24:52;;;;;;;398.67;67.07;;;;;;;1.09;100.00;103467.94;6235197;22;20550;-85
2022/01/13 06:27:19;;;;;;;349.92;67.63;;;;;;;1.11;100.00;103457.31;6231363;22;20078;-85
2022/01/13 06:29:44;;;;;;;296.00;52.30;;;;;;;1.15;100.00;103466.88;6232099;23;20016;-85
2022/01/13 06:32:10;;;;;;;283.42;52.67;;;;;;;1.08;100.00;103452.94;6232226;22;20524;-85
2022/01/13 06:34:35;;;;;;;277.92;45.03;;;;;;;1.07;100.00;103456.50;6212217;23;20026;-85
2022/01/13 06:37:01;;;;;;;284.83;48.85;;;;;;;1.06;100.00;103454.75;6237424;23;20019;-85
2022/01/13 06:39:26;;;;;;;276.65;45.13;;;;;;;1.04;100.00;103451.31;6237714;22;22368;-84
2022/01/13 06:41:52;;;;;;;280.88;51.42;;;;;;;1.06;100.00;103448.59;6240202;23;20020;-85
2022/01/13 06:44:17;;;;;;;290.75;51.83;;;;;;;1.05;100.00;103457.47;6208692;22;20040;-84
2022/01/13 06:46:43;;;;;;;224.32;41.92;;;;;;;1.05;100.00;103458.31;6236322;23;20380;-86
2022/01/13 06:49:08;;;;;;;258.13;47.25;;;;;;;1.05;100.00;103447.75;6237074;23;20043;-85
2022/01/13 06:51:34;;;;;;;214.82;45.63;;;;;;;1.03;100.00;103443.41;6234345;23;20015;-84
2022/01/13 06:54:00;;;;;;;257.38;54.90;;;;;;;1.02;100.00;103458.41;6261608;22;20026;-85
2022/01/13 06:56:26;;;;;;;263.13;54.67;;;;;;;1.06;100.00;103465.34;6209524;22;20016;-85
2022/01/13 06:58:52;;;;;;;299.75;62.45;;;;;;;1.04;100.00;103461.88;6237432;22;20044;-84
2022/01/13 07:01:18;;;;;;;234.32;46.67;;;;;;;1.03;100.00;103459.25;6233310;22;20020;-84
2022/01/13 07:03:43;;;;;;;236.38;46.65;;;;;;;1.02;100.00;103474.25;6235300;23;20352;-84
2022/01/13 07:06:09;;;;;;;238.50;51.10;;;;;;;1.03;100.00;103465.41;6236213;23;20043;-85
2022/01/13 07:08:34;;;;;;;203.13;40.05;;;;;;;1.00;100.00;103470.78;6233914;23;20012;-85
2022/01/13 07:11:03;;;;;;;229.57;46.25;;;;;;;0.95;100.00;103466.50;6236054;23;20012;-84
2022/01/13 07:13:29;;;;;;;160.57;30.30;;;;;;;0.96;100.00;103463.84;6236799;22;20193;-85
2022/01/13 07:15:55;;;;;;;242.27;41.47;;;;;;;0.99;100.00;103457.59;6236443;23;20091;-85
2022/01/13 07:18:20;;;;;;;272.05;47.90;;;;;;;1.02;100.00;103457.53;6209405;22;20020;-85
2022/01/13 07:20:48;;;;;;;280.80;53.67;;;;;;;1.02;100.00;103463.69;6237252;22;20020;-84
2022/01/13 07:23:14;;;;;;;304.45;55.60;;;;;;;1.05;100.00;103465.38;6235331;22;20091;-84
2022/01/13 07:25:39;;;;;;;365.27;67.90;;;;;;;1.10;100.00;103467.03;6236561;23;20094;-85
2022/01/13 07:28:05;;;;;;;333.98;57.03;;;;;;;1.10;100.00;103480.25;6261600;22;20557;-85
2022/01/13 07:30:32;;;;;;;278.42;49.65;;;;;;;1.08;100.00;103481.19;6211114;22;20516;-84
2022/01/13 07:32:57;;;;;;;348.08;61.92;;;;;;;1.12;100.00;103481.09;6237329;22;20047;-85
2022/01/13 07:35:23;;;;;;;291.48;55.65;;;;;;;1.08;100.00;103482.03;6236016;22;20070;-85
2022/01/13 07:37:48;;;;;;;215.25;45.88;;;;;;;1.03;100.00;103483.91;6236791;22;20055;-87
2022/01/13 07:40:14;;;;;;;220.23;41.38;;;;;;;1.05;100.00;103478.63;6233936;22;20022;-85
2022/01/13 07:42:42;;;;;;;291.35;58.25;;;;;;;1.05;100.00;103479.47;6237397;23;20016;-84
2022/01/13 07:45:09;;;;;;;221.52;37.70;;;;;;;1.03;100.00;103480.41;6235577;22;20047;-85
2022/01/13 07:47:35;;;;;;;191.95;37.00;;;;;;;1.03;100.00;103481.28;6236170;22;20536;-85
2022/01/13 07:50:00;;;;;;;236.85;45.08;;;;;;;1.02;100.00;103478.69;6238633;23;20074;-85
2022/01/13 07:52:27;;;;;;;310.38;64.75;;;;;;;1.10;100.00;103487.31;6206674;22;20032;-85
2022/01/13 07:54:53;;;;;;;224.02;44.63;;;;;;;1.08;100.00;103489.97;6211260;23;20449;-86
2022/01/13 07:57:18;;;;;;;220.68;42.67;;;;;;;1.04;100.00;103488.31;6234408;22;20031;-85
2022/01/13 07:59:43;;;;;;;233.38;48.67;;;;;;;1.08;100.00;103489.13;6236931;23;20409;-85
2022/01/13 08:02:09;;;;;;;216.80;39.17;;;;;;;1.05;100.00;103486.53;6235662;22;20532;-86
2022/01/13 08:04:34;;;;;;;274.88;52.67;;;;;;;1.04;100.00;103492.75;6238237;22;20016;-85
2022/01/13 08:07:00;;;;;;;248.40;48.80;;;;;;;1.05;100.00;103495.34;6209378;23;20046;-85
2022/01/13 08:09:25;;;;;;;243.07;46.13;;;;;;;1.04;100.00;103492.75;6209447;22;20016;-85
2022/01/13 08:11:51;;;;;;;268.20;50.00;;;;;;;1.05;100.00;103490.06;6211314;23;20020;-85
2022/01/13 08:14:16;;;;;;;225.07;39.45;;;;;;;1.03;100.00;103485.69;6260248;22;20106;-85
2022/01/13 08:16:44;;;;;;;229.52;42.17;;;;;;;1.05;100.00;103482.13;6236625;23;20024;-85
2022/01/13 08:21:54;;;;;;;235.05;43.67;;;;;;;1.06;100.00;103481.22;6236002;22;20134;-85
2022/01/13 08:24:19;;;;;;;231.88;44.17;;;;;;;1.01;100.00;103493.69;6237174;22;20099;-85
2022/01/13 08:26:44;;;;;;;312.17;58.55;;;;;;;1.08;100.00;103492.63;6236669;23;20012;-85
2022/01/13 08:29:10;;;;;;;306.33;55.58;;;;;;;1.05;100.00;103495.34;6211179;23;20012;-85
2022/01/13 08:31:36;;;;;;;233.65;41.55;;;;;;;1.02;100.00;103500.72;6259318;22;20016;-85
2022/01/13 08:34:01;;;;;;;292.48;49.85;;;;;;;1.05;100.00;103503.28;6210889;23;20040;-84
2022/01/13 08:36:26;;;;;;;266.05;46.42;;;;;;;1.04;100.00;103504.19;6236932;22;20356;-84
2022/01/13 08:38:52;;;;;;;313.92;56.83;;;;;;;1.08;100.00;103495.28;6235434;23;20026;-84
2022/01/13 08:41:18;;;;;;;292.65;53.70;;;;;;;1.05;100.00;103505.06;6207716;22;20020;-85
2022/01/13 08:43:43;;;;;;;335.10;61.58;;;;;;;1.12;100.00;103502.25;6236256;23;20027;-85
2022/01/13 08:46:09;;;;;;;282.73;50.45;;;;;;;1.10;100.00;103509.34;6237187;23;20467;-84
2022/01/13 08:48:35;;;;;;;252.18;48.53;;;;;;;1.01;100.00;103509.56;6210206;22;20027;-85
2022/01/13 08:51:02;;;;;;;301.00;54.47;;;;;;;1.04;100.00;103506.84;6210875;23;20023;-85
2022/01/13 08:53:28;;;;;;;153.82;30.13;;;;;;;0.97;100.00;103505.22;6233845;22;20069;-85
2022/01/13 08:55:55;;;;;;;252.68;46.17;;;;;;;1.08;100.00;103520.84;6236554;23;20095;-85
2022/01/13 08:58:22;;;;;;;271.58;49.58;;;;;;;1.07;100.00;103516.47;6236334;22;20457;-84
2022/01/13 09:00:49;;;;;;;250.93;49.63;;;;;;;1.13;100.00;103518.97;6235144;23;20023;-85
2022/01/13 09:03:15;;;;;;;192.27;36.35;;;;;;;1.03;100.00;103518.31;6209431;22;20019;-85
2022/01/13 09:05:42;;;;;;;271.77;52.42;;;;;;;1.08;100.00;103523.50;6235640;23;20020;-85
2022/01/13 09:08:10;;;;;;;301.90;53.25;;;;;;;1.11;100.00;103526.94;6208855;23;20016;-85
2022/01/13 09:10:39;;;;;;;236.60;46.70;;;;;;;1.06;100.00;103528.81;6235728;22;20031;-85
2022/01/13 09:13:07;;;;;;;248.65;47.15;;;;;;;1.08;100.00;103523.50;6238188;22;20460;-85
2022/01/13 09:15:38;;;;;;;265.48;49.42;;;;;;;1.13;100.00;103532.19;6237032;22;20020;-85
2022/01/13 09:18:16;;;;;;;295.25;59.25;;;;;;;1.15;100.00;103529.50;6234636;23;20112;-84
2022/01/13 09:20:42;;;;;;;179.93;35.40;;;;;;;1.09;100.00;103541.09;6235382;22;20024;-85
2022/01/13 09:23:09;;;;;;;256.42;52.22;;;;;;;1.07;100.00;103541.16;6236722;22;20008;-86
2022/01/13 09:25:35;;;;;;;188.45;39.40;;;;;;;1.09;100.00;103533.16;6259408;22;20012;-84
2022/01/13 09:28:03;;;;;;;209.60;41.17;;;;;;;1.08;100.00;103537.59;6235293;23;20070;-86
2022/01/13 09:30:29;;;;;;;205.68;43.53;;;;;;;1.09;100.00;103541.09;6231744;22;20027;-86
2022/01/13 09:32:54;;;;;;;234.50;44.45;;;;;;;1.10;100.00;103540.22;6237397;22;20091;-85
2022/01/13 09:35:21;;;;;;;253.35;51.92;;;;;;;1.16;100.00;103532.13;6208631;22;20755;-87
2022/01/13 09:37:47;;;;;;;203.40;41.05;;;;;;;1.12;100.00;103536.63;6231495;23;20432;-85
2022/01/13 09:40:14;;;;;;;168.65;30.73;;;;;;;1.12;100.00;103533.97;6232487;22;20012;-85
2022/01/13 09:42:42;;;;;;;224.90;46.13;;;;;;;1.07;100.00;103546.44;6236317;23;20150;-86
2022/01/13 09:45:09;;;;;;;230.95;46.60;;;;;;;1.09;100.00;103534.06;6210484;23;20020;-86
2022/01/13 09:47:37;;;;;;;211.02;45.30;;;;;;;1.15;100.00;103540.09;6236546;22;20097;-85
2022/01/13 09:50:09;;;;;;;220.95;43.95;;;;;;;1.08;100.00;103545.53;6235872;23;20083;-85
2022/01/13 09:52:36;;;;;;;275.98;56.28;;;;;;;1.17;100.00;103547.06;6235625;22;20384;-84
2022/01/13 09:55:04;;;;;;;247.90;51.00;;;;;;;1.25;100.00;103552.19;6237133;22;20082;-86
2022/01/13 09:57:29;;;;;;;236.00;47.08;;;;;;;1.27;100.00;103548.63;6233939;22;20447;-84
2022/01/13 09:59:58;;;;;;;295.70;57.80;;;;;;;1.30;100.00;103551.19;6235940;23;20099;-85
2022/01/13 10:02:24;;;;;;;211.40;37.40;;;;;;;1.24;100.00;103555.75;6234673;22;20026;-87
2022/01/13 10:04:53;;;;;;;292.40;55.40;;;;;;;1.28;100.00;103549.47;6235745;23;20016;-85
2022/01/13 10:07:41;;;;;;;260.60;56.28;;;;;;;1.29;100.00;103543.28;6236255;22;20483;-86
2022/01/13 10:10:16;;;;;;;243.57;46.00;;;;;;;1.27;100.00;103545.09;6235703;23;20016;-85
2022/01/13 10:12:43;;;;;;;261.70;45.50;;;;;;;1.29;100.00;103543.28;6234933;23;20027;-86
2022/01/13 10:18:05;;;;;;;268.25;44.67;;;;;;;1.34;100.00;103534.31;6237861;23;20487;-85
2022/01/13 10:20:32;;;;;;;277.58;46.17;;;;;;;1.33;100.00;103529.94;6259199;22;20095;-85
2022/01/13 10:23:11;;;;;;;209.02;36.05;;;;;;;1.33;100.00;103526.44;6238798;22;20008;-86
2022/01/13 10:25:39;;;;;;;273.58;52.60;;;;;;;1.36;100.00;103521.06;6210520;22;20364;-85
2022/01/13 10:28:20;;;;;;;230.65;45.78;;;;;;;1.39;100.00;103515.69;6237573;23;20012;-85
2022/01/13 10:30:51;;;;;;;223.55;49.55;;;;;;;1.43;100.00;103522.63;6211230;22;20016;-85
2022/01/13 10:33:25;;;;;;;194.35;45.80;;;;;;;1.39;100.00;103510.41;6240482;22;20016;-86
2022/01/13 10:36:05;;;;;;;202.48;44.88;;;;;;;1.43;100.00;103522.63;6241978;22;20483;-86
2022/01/13 10:38:51;;;;;;;207.23;44.70;;;;;;;1.43;100.00;103512.06;6261394;22;20023;-84
2022/01/13 10:42:02;;;;;;;237.27;50.70;;;;;;;1.41;100.00;103519.19;6234171;23;20023;-85
2022/01/13 10:44:24;;;;;;;235.57;52.35;;;;;;;1.40;100.00;103498.03;6234667;22;20342;-85
2022/01/13 10:47:05;;;;;;;199.70;46.13;;;;;;;1.45;100.00;103499.66;6237987;22;20093;-85
2022/01/13 10:49:35;;;;;;;208.10;47.22;;;;;;;1.37;100.00;103488.41;6235352;22;20016;-85
2022/01/13 10:52:24;;;;;;;181.20;38.47;;;;;;;1.39;100.00;103499.81;6237511;22;20016;-85
2022/01/13 10:54:55;;;;;;;;;;;;;;;1.38;100.00;103492.75;6234814;22;20353;-85
2022/01/13 10:57:24;;;;;;;180.48;45.25;;;;;;;1.36;100.00;103494.59;6259906;22;19914;-86
2022/01/13 10:59:50;;;;;;;211.30;50.22;;;;;;;1.42;100.00;103483.00;6236703;23;20039;-85
2022/01/13 11:02:18;;;;;;;207.85;49.90;;;;;;;1.46;100.00;103485.50;6236274;23;20091;-85
2022/01/13 11:04:44;;;;;;;189.20;39.47;;;;;;;1.47;100.00;103487.25;6234053;22;20024;-85
2022/01/13 11:07:23;;;;;;;224.68;46.80;;;;;;;1.54;100.00;103491.47;6209474;23;20077;-85
2022/01/13 11:09:53;;;;;;;193.60;44.97;;;;;;;1.51;100.00;103495.97;6210941;23;20020;-85
2022/01/13 11:12:36;;;;;;;190.50;40.60;;;;;;;1.53;100.00;103489.75;6235925;22;20012;-84
2022/01/13 11:15:12;;;;;;;153.48;33.22;;;;;;;1.55;100.00;103493.22;6259774;22;20517;-86
2022/01/13 11:17:38;;;;;;;192.82;42.35;;;;;;;1.58;100.00;103482.56;6234657;23;20020;-85
2022/01/13 11:20:06;;;;;;;240.27;53.10;;;;;;;1.62;100.00;103487.78;6240176;22;20074;-85
2022/01/13 11:22:35;;;;;;;219.15;45.17;;;;;;;1.62;100.00;103485.13;6262970;22;20054;-86
2022/01/13 11:25:07;;;;;;;232.43;53.22;;;;;;;1.65;100.00;103480.63;6187220;23;20477;-85
2022/01/13 11:27:33;;;;;;;211.02;47.40;;;;;;;1.67;100.00;103484.09;6240761;22;20024;-86
2022/01/13 11:30:00;;;;;;;215.73;52.28;;;;;;;1.66;100.00;103474.41;6244844;22;20011;-85